createdAt,value
2018-03-20T00:02:12.482Z,14.63
2018-03-20T00:04:39.948Z,12.05
2018-03-20T00:07:07.420Z,10.02
2018-03-20T00:09:34.953Z,12.75
2018-03-20T00:12:02.411Z,11.88
2018-03-20T00:14:29.886Z,12.02
2018-03-20T00:16:57.372Z,10.98
2018-03-20T00:19:24.822Z,13.20
2018-03-20T00:21:56.115Z,14.60
2018-03-20T00:24:23.606Z,11.07
2018-03-20T00:26:51.076Z,12.35
2018-03-20T00:29:18.542Z,13.05
2018-03-20T00:31:46.021Z,12.25
2018-03-20T00:34:14.250Z,15.68
2018-03-20T00:36:41.786Z,14.27
2018-03-20T00:39:09.270Z,15.05
2018-03-20T00:41:36.734Z,15.85
2018-03-20T00:44:04.191Z,12.07
2018-03-20T00:46:31.755Z,17.17
2018-03-20T00:48:59.238Z,10.82
2018-03-20T00:51:27.471Z,13.80
2018-03-20T00:53:54.945Z,10.65
2018-03-20T00:56:22.410Z,13.77
2018-03-20T00:58:49.866Z,11.00
2018-03-20T01:01:17.519Z,11.20
2018-03-20T01:03:44.938Z,15.35
2018-03-20T01:06:12.423Z,15.65
2018-03-20T01:08:39.943Z,12.07
2018-03-20T01:11:07.422Z,11.55
2018-03-20T01:13:35.114Z,13.93
2018-03-20T01:16:02.570Z,11.32
2018-03-20T01:18:30.034Z,15.05
2018-03-20T01:20:58.280Z,11.73
2018-03-20T01:23:25.743Z,17.98
2018-03-20T01:25:53.225Z,11.07
2018-03-20T01:28:21.451Z,11.45
2018-03-20T01:30:48.920Z,14.27
2018-03-20T01:33:16.399Z,12.10
2018-03-20T01:35:43.865Z,16.55
2018-03-20T01:38:12.338Z,14.63
2018-03-20T01:40:39.898Z,12.73
2018-03-20T01:43:07.373Z,13.43
2018-03-20T01:45:35.630Z,9.27
2018-03-20T01:48:03.089Z,14.87
2018-03-20T01:50:31.320Z,18.05
2018-03-20T01:53:10.846Z,18.25
2018-03-20T01:55:38.302Z,11.57
2018-03-20T01:58:05.789Z,16.05
2018-03-20T02:00:33.267Z,16.75
2018-03-20T02:03:00.835Z,13.45
2018-03-20T02:05:28.325Z,13.18
2018-03-20T02:07:55.829Z,17.50
2018-03-20T02:10:23.306Z,13.00
2018-03-20T02:12:51.786Z,14.80
2018-03-20T02:15:19.257Z,15.25
2018-03-20T02:17:47.497Z,13.80
2018-03-20T02:20:14.978Z,16.65
2018-03-20T02:22:43.205Z,15.77
2018-03-20T02:25:10.674Z,14.35
2018-03-20T02:27:38.151Z,13.35
2018-03-20T02:30:05.613Z,15.60
2018-03-20T02:32:33.072Z,14.40
2018-03-20T02:35:01.337Z,11.45
2018-03-20T02:37:28.799Z,14.27
2018-03-20T02:39:57.027Z,16.83
2018-03-20T02:42:24.652Z,15.88
2018-03-20T02:44:52.879Z,12.68
2018-03-20T02:47:20.330Z,16.02
2018-03-20T02:49:47.821Z,13.80
2018-03-20T02:52:15.283Z,14.35
2018-03-20T02:54:43.513Z,15.27
2018-03-20T02:57:11.169Z,18.10
2018-03-20T02:59:38.671Z,16.90
2018-03-20T03:02:06.227Z,14.05
2018-03-20T03:04:33.736Z,12.93
2018-03-20T03:07:01.208Z,12.37
2018-03-20T03:09:28.683Z,15.30
2018-03-20T03:11:56.354Z,19.98
2018-03-20T03:14:23.811Z,15.38
2018-03-20T03:16:52.778Z,15.27
2018-03-20T03:19:20.262Z,15.35
2018-03-20T03:21:47.725Z,17.67
2018-03-20T03:24:15.187Z,16.10
2018-03-20T03:26:43.444Z,13.25
2018-03-20T03:29:10.906Z,13.50
2018-03-20T03:31:38.377Z,12.35
2018-03-20T03:34:06.618Z,12.75
2018-03-20T03:36:34.082Z,13.43
2018-03-20T03:39:01.611Z,23.55
2018-03-20T03:41:29.069Z,13.88
2018-03-20T03:43:56.617Z,14.90
2018-03-20T03:46:24.086Z,12.25
2018-03-20T03:48:51.631Z,16.60
2018-03-20T03:51:19.090Z,12.40
2018-03-20T03:53:46.579Z,14.93
2018-03-20T03:56:14.061Z,12.07
2018-03-20T03:58:41.527Z,13.07
2018-03-20T04:01:09.787Z,14.52
2018-03-20T04:03:37.246Z,16.08
2018-03-20T04:06:05.474Z,15.15
2018-03-20T04:08:32.958Z,23.27
2018-03-20T04:11:00.423Z,20.37
2018-03-20T04:13:27.882Z,21.37
2018-03-20T04:15:55.387Z,17.33
2018-03-20T04:18:22.855Z,17.95
2018-03-20T04:20:50.334Z,16.25
2018-03-20T04:23:17.803Z,20.98
2018-03-20T04:25:45.429Z,24.05
2018-03-20T04:28:12.926Z,24.02
2018-03-20T04:30:40.390Z,20.17
2018-03-20T04:33:07.875Z,24.27
2018-03-20T04:35:35.355Z,25.50
2018-03-20T04:38:02.950Z,20.95
2018-03-20T04:40:30.426Z,20.35
2018-03-20T04:42:58.663Z,21.02
2018-03-20T04:45:26.130Z,24.33
2018-03-20T04:47:53.650Z,23.02
2018-03-20T04:50:21.107Z,19.23
2018-03-20T04:52:48.619Z,17.55
2018-03-20T04:55:16.122Z,19.52
2018-03-20T04:57:43.589Z,20.73
2018-03-20T05:00:11.054Z,16.40
2018-03-20T05:02:38.535Z,32.47
2018-03-20T05:05:06.010Z,19.85
2018-03-20T05:07:33.462Z,18.58
2018-03-20T05:10:01.726Z,29.50
2018-03-20T05:12:29.200Z,18.52
2018-03-20T05:14:57.438Z,23.10
2018-03-20T05:17:24.918Z,24.98
2018-03-20T05:20:02.298Z,18.62
2018-03-20T05:22:38.537Z,17.58
2018-03-20T05:25:06.011Z,23.02
2018-03-20T05:27:33.471Z,24.45
2018-03-20T05:30:01.142Z,18.37
2018-03-20T05:32:28.606Z,19.27
2018-03-20T05:34:56.871Z,21.70
2018-03-20T05:37:24.530Z,19.50
2018-03-20T05:39:52.010Z,23.33
2018-03-20T05:42:20.251Z,23.65
2018-03-20T05:44:47.723Z,22.98
2018-03-20T05:50:20.548Z,31.25
2018-03-20T05:52:48.777Z,26.70
2018-03-20T05:55:16.288Z,36.38
2018-03-20T05:57:44.518Z,29.52
2018-03-20T06:00:11.991Z,23.70
2018-03-20T06:02:39.451Z,21.37
2018-03-20T06:05:07.710Z,26.95
2018-03-20T06:07:35.205Z,31.02
2018-03-20T06:10:03.433Z,28.77
2018-03-20T06:12:30.910Z,26.42
2018-03-20T06:14:59.143Z,27.87
2018-03-20T06:17:26.609Z,26.30
2018-03-20T06:19:54.114Z,32.50
2018-03-20T06:22:22.338Z,26.00
2018-03-20T06:24:49.818Z,26.12
2018-03-20T06:27:17.478Z,34.22
2018-03-20T06:29:44.949Z,24.90
2018-03-20T06:32:13.178Z,26.83
2018-03-20T06:34:40.900Z,39.95
2018-03-20T06:37:09.129Z,32.00
2018-03-20T06:39:36.603Z,23.85
2018-03-20T06:42:04.102Z,26.85
2018-03-20T06:44:31.562Z,39.47
2018-03-20T06:46:59.036Z,30.40
2018-03-20T06:49:26.526Z,28.73
2018-03-20T06:51:53.995Z,31.02
2018-03-20T06:54:21.706Z,30.95
2018-03-20T06:56:49.211Z,29.48
2018-03-20T06:59:16.695Z,28.67
2018-03-20T07:01:44.198Z,31.10
2018-03-20T07:04:11.666Z,34.75
2018-03-20T07:06:39.142Z,25.70
2018-03-20T07:09:07.416Z,27.40
2018-03-20T07:11:34.875Z,36.20
2018-03-20T07:14:03.115Z,24.20
2018-03-20T07:16:30.602Z,27.65
2018-03-20T07:18:58.090Z,26.37
2018-03-20T07:21:25.669Z,25.05
2018-03-20T07:23:53.160Z,33.58
2018-03-20T07:26:20.615Z,36.47
2018-03-20T07:28:48.110Z,34.17
2018-03-20T07:31:16.342Z,33.17
2018-03-20T07:33:43.879Z,41.95
2018-03-20T07:36:11.586Z,21.37
2018-03-20T07:38:39.831Z,31.67
2018-03-20T07:41:07.316Z,23.10
2018-03-20T07:43:35.566Z,23.00
2018-03-20T07:46:03.027Z,29.67
2018-03-20T07:48:30.526Z,27.80
2018-03-20T07:50:57.993Z,24.53
2018-03-20T07:53:25.570Z,22.07
2018-03-20T07:55:53.026Z,19.23
2018-03-20T07:58:20.549Z,22.60
2018-03-20T08:00:48.804Z,16.43
2018-03-20T08:03:16.260Z,19.17
2018-03-20T08:05:43.804Z,28.27
2018-03-20T08:08:11.255Z,26.90
2018-03-20T08:10:38.732Z,20.20
2018-03-20T08:13:06.239Z,24.10
2018-03-20T08:15:33.691Z,14.90
2018-03-20T08:18:01.161Z,23.87
2018-03-20T08:20:28.871Z,19.70
2018-03-20T08:22:56.332Z,15.43
2018-03-20T08:25:24.596Z,14.20
2018-03-20T08:27:52.082Z,13.90
2018-03-20T08:30:20.299Z,13.60
2018-03-20T08:32:47.751Z,16.13
2018-03-20T08:35:15.244Z,13.90
2018-03-20T08:37:42.711Z,15.80
2018-03-20T08:40:10.164Z,23.60
2018-03-20T08:42:37.638Z,26.27
2018-03-20T08:45:05.862Z,17.90
2018-03-20T08:47:33.323Z,15.97
2018-03-20T08:50:00.816Z,19.70
2018-03-20T08:52:28.263Z,23.40
2018-03-20T08:54:55.754Z,17.87
2018-03-20T08:57:23.217Z,14.00
2018-03-20T08:59:50.667Z,17.60
2018-03-20T09:02:18.138Z,13.77
2018-03-20T09:04:45.593Z,19.47
2018-03-20T09:07:13.980Z,13.13
2018-03-20T09:09:41.479Z,15.30
2018-03-20T09:12:08.930Z,18.90
2018-03-20T09:14:36.391Z,12.60
2018-03-20T09:17:03.875Z,13.40
2018-03-20T09:19:31.335Z,16.67
2018-03-20T09:21:58.806Z,13.00
2018-03-20T09:24:26.330Z,15.57
2018-03-20T09:26:53.784Z,13.67
2018-03-20T09:29:22.011Z,24.27
2018-03-20T09:31:49.488Z,13.23
2018-03-20T09:34:16.942Z,15.43
2018-03-20T09:36:44.416Z,14.33
2018-03-20T09:39:11.884Z,10.83
2018-03-20T09:41:39.340Z,12.10
2018-03-20T09:44:07.577Z,11.27
2018-03-20T09:46:35.061Z,11.90
2018-03-20T09:49:02.533Z,15.70
2018-03-20T09:51:30.764Z,16.00
2018-03-20T09:53:58.235Z,11.10
2018-03-20T09:56:25.695Z,12.37
2018-03-20T09:58:53.176Z,9.67
2018-03-20T10:01:21.398Z,8.83
2018-03-20T10:03:48.881Z,6.30
2018-03-20T10:06:16.359Z,12.77
2018-03-20T10:08:44.591Z,8.73
2018-03-20T10:11:12.076Z,10.53
2018-03-20T10:13:39.562Z,8.20
2018-03-20T10:16:07.084Z,7.93
2018-03-20T10:18:34.552Z,6.57
2018-03-20T10:21:02.026Z,8.73
2018-03-20T10:23:30.252Z,9.10
2018-03-20T10:25:57.712Z,3.87
2018-03-20T10:28:25.201Z,6.77
2018-03-20T10:30:52.671Z,7.23
2018-03-20T10:33:20.894Z,5.93
2018-03-20T10:35:48.383Z,9.63
2018-03-20T10:38:15.834Z,9.90
2018-03-20T10:40:43.315Z,6.57
2018-03-20T10:43:11.543Z,5.40
2018-03-20T10:45:38.998Z,8.03
2018-03-20T10:48:06.497Z,10.23
2018-03-20T10:50:34.718Z,6.77
2018-03-20T10:53:02.183Z,3.83
2018-03-20T10:55:29.663Z,4.33
2018-03-20T10:57:57.122Z,3.00
2018-03-20T11:00:39.745Z,9.73
2018-03-20T11:03:07.952Z,6.57
2018-03-20T11:05:35.414Z,3.70
2018-03-20T11:08:02.937Z,4.93
2018-03-20T11:10:30.397Z,4.20
2018-03-20T11:12:58.607Z,4.80
2018-03-20T11:15:26.119Z,3.70
2018-03-20T11:17:53.660Z,4.80
2018-03-20T11:20:21.140Z,3.37
2018-03-20T11:22:49.052Z,4.20
2018-03-20T11:25:16.578Z,3.50
2018-03-20T11:27:44.820Z,3.30
2018-03-20T11:30:12.302Z,2.93
2018-03-20T11:32:40.532Z,4.60
2018-03-20T11:35:08.022Z,4.93
2018-03-20T11:37:35.474Z,3.27
2018-03-20T11:40:02.947Z,2.30
2018-03-20T11:42:31.166Z,4.87
2018-03-20T11:44:58.709Z,2.07
2018-03-20T11:47:26.187Z,2.87
2018-03-20T11:49:53.663Z,6.43
2018-03-20T11:52:21.118Z,4.93
2018-03-20T11:54:48.615Z,4.50
2018-03-20T11:57:16.084Z,5.80
2018-03-20T11:59:43.594Z,4.27
2018-03-20T12:02:11.134Z,3.97
2018-03-20T12:04:38.592Z,5.60
2018-03-20T12:07:06.051Z,2.40
2018-03-20T12:09:50.359Z,6.77
2018-03-20T12:12:17.835Z,2.40
2018-03-20T12:14:45.297Z,2.00
2018-03-20T12:17:12.783Z,3.70
2018-03-20T12:19:40.234Z,5.97
2018-03-20T12:22:07.693Z,7.83
2018-03-20T12:24:35.185Z,4.67
2018-03-20T12:27:03.406Z,2.60
2018-03-20T12:29:30.870Z,4.43
2018-03-20T12:31:58.385Z,5.13
2018-03-20T12:34:25.806Z,7.37
2018-03-20T12:36:53.346Z,4.70
2018-03-20T12:39:20.838Z,5.73
2018-03-20T12:41:49.058Z,2.40
2018-03-20T12:44:16.514Z,4.20
2018-03-20T12:46:44.036Z,6.60
2018-03-20T12:49:11.451Z,7.07
2018-03-20T12:51:38.936Z,2.70
2018-03-20T12:54:07.401Z,4.87
2018-03-20T12:56:34.913Z,6.20
2018-03-20T12:59:02.379Z,3.50
2018-03-20T13:01:29.911Z,5.30
2018-03-20T13:03:57.330Z,2.60
2018-03-20T13:06:24.796Z,6.13
2018-03-20T13:08:53.259Z,7.50
2018-03-20T13:11:20.711Z,5.27
2018-03-20T13:13:48.182Z,5.00
2018-03-20T13:16:15.684Z,5.40
2018-03-20T13:18:43.142Z,2.30
2018-03-20T13:21:10.600Z,3.00
2018-03-20T13:23:38.102Z,6.43
2018-03-20T13:26:05.563Z,9.10
2018-03-20T13:28:33.015Z,5.33
2018-03-20T13:31:00.495Z,4.13
2018-03-20T13:33:28.723Z,5.07
2018-03-20T13:35:56.190Z,8.90
2018-03-20T13:38:23.674Z,3.20
2018-03-20T13:40:51.899Z,3.27
2018-03-20T13:43:19.375Z,3.27
2018-03-20T13:45:46.871Z,3.97
2018-03-20T13:48:15.133Z,5.47
2018-03-20T13:50:42.645Z,3.27
2018-03-20T13:53:13.079Z,3.30
2018-03-20T13:55:40.539Z,4.07
2018-03-20T13:58:08.025Z,3.03
2018-03-20T14:00:35.504Z,3.57
2018-03-20T14:03:03.727Z,7.80
2018-03-20T14:05:31.211Z,3.40
2018-03-20T14:07:58.670Z,1.73
2018-03-20T14:10:26.902Z,4.30
2018-03-20T14:12:54.368Z,1.40
2018-03-20T14:15:21.834Z,6.90
2018-03-20T14:17:49.308Z,2.87
2018-03-20T14:20:18.285Z,4.10
2018-03-20T14:22:45.748Z,4.47
2018-03-20T14:25:13.197Z,3.40
2018-03-20T14:27:40.693Z,1.73
2018-03-20T14:30:08.914Z,4.77
2018-03-20T14:32:36.371Z,2.27
2018-03-20T14:35:05.665Z,3.40
2018-03-20T14:37:33.124Z,5.00
2018-03-20T14:40:01.783Z,2.30
2018-03-20T14:42:30.458Z,2.93
2018-03-20T14:44:58.770Z,3.33
2018-03-20T14:47:26.482Z,2.70
2018-03-20T14:49:54.726Z,2.70
2018-03-20T14:52:22.783Z,2.43
2018-03-20T14:54:50.937Z,2.10
2018-03-20T14:57:18.417Z,9.53
2018-03-20T14:59:45.910Z,2.93
2018-03-20T15:02:13.339Z,2.30
2018-03-20T15:04:40.828Z,4.33
2018-03-20T15:07:09.040Z,2.97
2018-03-20T15:09:36.490Z,4.50
2018-03-20T15:12:03.972Z,1.50
2018-03-20T15:14:31.431Z,3.43
2018-03-20T15:16:58.901Z,4.70
2018-03-20T15:19:26.626Z,5.43
2018-03-20T15:21:54.084Z,2.60
2018-03-20T15:24:21.543Z,2.90
2018-03-20T15:26:49.022Z,3.03
2018-03-20T15:29:16.536Z,1.63
2018-03-20T15:31:43.959Z,3.37
2018-03-20T15:34:11.419Z,6.60
2018-03-20T15:36:39.634Z,1.77
2018-03-20T15:39:07.241Z,1.83
2018-03-20T15:41:35.472Z,7.80
2018-03-20T15:44:02.926Z,2.33
2018-03-20T15:46:30.426Z,3.23
2018-03-20T15:48:57.880Z,4.40
2018-03-20T15:51:26.158Z,2.97
2018-03-20T15:53:54.199Z,2.53
2018-03-20T15:56:21.664Z,5.20
2018-03-20T15:58:50.218Z,1.77
2018-03-20T16:01:17.780Z,2.50
2018-03-20T16:03:45.257Z,4.63
2018-03-20T16:06:12.721Z,3.53
2018-03-20T16:08:40.188Z,8.80
2018-03-20T16:11:07.681Z,6.70
2018-03-20T16:13:35.920Z,4.50
2018-03-20T16:16:03.384Z,3.43
2018-03-20T16:18:30.856Z,5.13
2018-03-20T16:20:59.071Z,1.93
2018-03-20T16:23:26.523Z,3.43
2018-03-20T16:25:54.028Z,13.17
2018-03-20T16:28:21.475Z,3.43
2018-03-20T16:30:48.948Z,4.30
2018-03-20T16:33:16.452Z,2.83
2018-03-20T16:35:43.911Z,3.83
2018-03-20T16:38:11.414Z,5.03
2018-03-20T16:40:38.901Z,2.77
2018-03-20T16:43:06.362Z,1.77
2018-03-20T16:45:33.827Z,4.10
2018-03-20T16:48:01.839Z,5.03
2018-03-20T16:50:29.327Z,4.60
2018-03-20T16:52:57.658Z,2.73
2018-03-20T16:55:25.139Z,1.57
2018-03-20T16:57:52.603Z,1.80
2018-03-20T17:00:20.099Z,3.23
2018-03-20T17:02:48.619Z,3.63
2018-03-20T17:05:16.144Z,1.93
2018-03-20T17:07:43.624Z,4.77
2018-03-20T17:10:11.080Z,2.40
2018-03-20T17:12:38.572Z,6.50
2018-03-20T17:15:07.062Z,4.80
2018-03-20T17:17:35.307Z,2.80
2018-03-20T17:20:02.830Z,4.20
2018-03-20T17:22:31.043Z,3.87
2018-03-20T17:24:59.266Z,6.63
2018-03-20T17:27:26.748Z,4.33
2018-03-20T17:29:54.920Z,3.90
2018-03-20T17:32:22.392Z,5.97
2018-03-20T17:34:49.908Z,2.70
2018-03-20T17:37:17.370Z,5.27
2018-03-20T17:39:45.201Z,3.50
2018-03-20T17:42:14.940Z,7.70
2018-03-20T17:44:43.270Z,5.20
2018-03-20T17:47:11.570Z,6.83
2018-03-20T17:49:39.848Z,5.20
2018-03-20T17:52:08.083Z,5.20
2018-03-20T17:54:35.543Z,5.43
2018-03-20T17:57:03.019Z,4.10
2018-03-20T17:59:30.478Z,5.47
2018-03-20T18:01:59.515Z,6.20
2018-03-20T18:04:27.866Z,12.10
2018-03-20T18:06:56.110Z,7.07
2018-03-20T18:09:23.584Z,5.10
2018-03-20T18:11:51.946Z,7.67
2018-03-20T18:14:19.556Z,8.90
2018-03-20T18:16:47.020Z,8.40
2018-03-20T18:19:14.494Z,8.70
2018-03-20T18:21:41.963Z,13.10
2018-03-20T18:24:09.435Z,8.00
2018-03-20T18:26:36.919Z,4.50
2018-03-20T18:29:05.144Z,11.73
2018-03-20T18:31:32.607Z,11.00
2018-03-20T18:34:00.099Z,7.60
2018-03-20T18:36:28.326Z,8.50
2018-03-20T18:38:55.799Z,6.30
2018-03-20T18:41:23.286Z,5.50
2018-03-20T18:43:51.502Z,8.23
2018-03-20T18:46:18.963Z,10.90
2018-03-20T18:48:46.675Z,4.50
2018-03-20T18:51:14.144Z,8.70
2018-03-20T18:53:41.614Z,6.17
2018-03-20T18:56:09.114Z,5.37
2018-03-20T18:58:36.591Z,6.20
2018-03-20T19:01:04.058Z,5.00
2018-03-20T19:03:32.329Z,4.57
2018-03-20T19:05:59.787Z,4.43
2018-03-20T19:08:27.234Z,4.57
2018-03-20T19:10:54.726Z,6.30
2018-03-20T19:13:22.251Z,4.40
2018-03-20T19:15:49.718Z,3.10
2018-03-20T19:18:17.976Z,3.20
2018-03-20T19:20:45.448Z,4.20
2018-03-20T19:23:12.895Z,4.40
2018-03-20T19:25:40.559Z,5.57
2018-03-20T19:28:08.024Z,1.47
2018-03-20T19:30:36.242Z,1.53
2018-03-20T19:33:03.761Z,7.37
2018-03-20T19:35:31.978Z,4.90
2018-03-20T19:37:59.475Z,3.80
2018-03-20T19:40:26.960Z,3.00
2018-03-20T19:42:54.419Z,2.50
2018-03-20T19:45:21.886Z,9.30
2018-03-20T19:47:49.359Z,5.20
2018-03-20T19:50:16.836Z,5.70
2018-03-20T19:52:44.309Z,3.13
2018-03-20T19:55:13.284Z,2.83
2018-03-20T19:57:40.802Z,3.53
2018-03-20T20:00:08.600Z,8.73
2018-03-20T20:02:36.075Z,2.37
2018-03-20T20:05:03.724Z,3.90
2018-03-20T20:07:31.187Z,3.40
2018-03-20T20:09:58.649Z,5.50
2018-03-20T20:12:26.139Z,3.03
2018-03-20T20:14:53.611Z,4.87
2018-03-20T20:17:21.077Z,3.73
2018-03-20T20:19:48.589Z,6.07
2018-03-20T20:22:16.831Z,3.92
2018-03-20T20:24:44.302Z,7.93
2018-03-20T20:27:11.778Z,4.63
2018-03-20T20:29:40.011Z,6.90
2018-03-20T20:32:09.023Z,3.45
2018-03-20T20:34:38.200Z,3.90
2018-03-20T20:37:06.392Z,5.18
2018-03-20T20:39:35.004Z,2.70
2018-03-20T20:42:05.087Z,6.25
2018-03-20T20:44:32.582Z,2.92
2018-03-20T20:47:02.040Z,3.35
2018-03-20T20:49:30.539Z,3.47
2018-03-20T20:51:58.008Z,5.20
2018-03-20T20:54:27.250Z,4.17
2018-03-20T20:56:54.739Z,3.60
2018-03-20T20:59:22.209Z,3.37
2018-03-20T21:01:49.787Z,4.37
2018-03-20T21:04:18.755Z,5.32
2018-03-20T21:06:46.225Z,2.95
2018-03-20T21:09:15.062Z,2.87
2018-03-20T21:11:42.554Z,6.97
2018-03-20T21:14:11.543Z,5.22
2018-03-20T21:16:39.003Z,6.07
2018-03-20T21:19:06.492Z,7.07
2018-03-20T21:21:34.736Z,4.80
2018-03-20T21:24:02.223Z,3.10
2018-03-20T21:26:30.470Z,3.62
2018-03-20T21:28:57.939Z,4.50
2018-03-20T21:31:25.405Z,7.25
2018-03-20T21:33:53.890Z,9.25
2018-03-20T21:36:22.131Z,6.28
2018-03-20T21:38:49.581Z,4.43
2018-03-20T21:41:17.062Z,4.28
2018-03-20T21:43:45.287Z,8.35
2018-03-20T21:46:12.760Z,3.58
2018-03-20T21:48:40.255Z,2.80
2018-03-20T21:51:08.486Z,3.45
2018-03-20T21:53:35.947Z,2.20
2018-03-20T21:56:03.640Z,4.15
2018-03-20T21:58:31.155Z,4.18
2018-03-20T22:00:58.615Z,3.42
2018-03-20T22:03:26.111Z,5.53
2018-03-20T22:05:54.347Z,8.45
2018-03-20T22:08:21.803Z,5.10
2018-03-20T22:10:49.999Z,3.47
2018-03-20T22:13:18.688Z,4.40
2018-03-20T22:15:46.150Z,3.42
2018-03-20T22:18:13.680Z,4.62
2018-03-20T22:20:42.495Z,10.18
2018-03-20T22:23:09.947Z,8.25
2018-03-20T22:25:37.420Z,6.78
2018-03-20T22:28:05.668Z,8.73
2018-03-20T22:30:33.143Z,7.10
2018-03-20T22:33:00.627Z,6.70
2018-03-20T22:35:29.799Z,6.03
2018-03-20T22:37:57.279Z,5.35
2018-03-20T22:40:26.110Z,10.50
2018-03-20T22:42:53.609Z,7.15
2018-03-20T22:45:21.095Z,5.55
2018-03-20T22:47:49.383Z,8.05
2018-03-20T22:50:16.850Z,4.35
2018-03-20T22:52:44.341Z,5.72
2018-03-20T22:55:11.794Z,8.10
2018-03-20T22:57:39.255Z,7.25
2018-03-20T23:00:06.753Z,4.62
2018-03-20T23:02:34.218Z,5.78
2018-03-20T23:05:01.687Z,3.60
2018-03-20T23:07:29.162Z,4.87
2018-03-20T23:09:56.639Z,4.95
2018-03-20T23:12:24.868Z,4.00
2018-03-20T23:14:52.350Z,5.72
2018-03-20T23:17:19.816Z,4.85
2018-03-20T23:19:47.323Z,5.32
2018-03-20T23:22:15.553Z,12.43
2018-03-20T23:24:43.015Z,9.20
2018-03-20T23:27:10.510Z,5.57
2018-03-20T23:29:38.735Z,3.80
2018-03-20T23:32:06.204Z,11.40
2018-03-20T23:34:34.635Z,6.80
2018-03-20T23:37:02.106Z,11.38
2018-03-20T23:39:29.567Z,8.60
2018-03-20T23:41:57.270Z,3.12
2018-03-20T23:44:24.727Z,5.22
2018-03-20T23:46:52.199Z,6.60
2018-03-20T23:49:20.461Z,8.55
2018-03-20T23:51:47.916Z,6.35
2018-03-20T23:54:16.152Z,6.60
2018-03-20T23:56:43.632Z,6.68
2018-03-20T23:59:11.091Z,8.77
